Weather at Bahrain International Airport

Public forecast

Using degrees Celsius for public forecast. Weather courtesy of forecast.io.

Current aviation weather report (METAR) for Bahrain International Airport

2024/06/22 06:00 (retrieved 25 minutes ago)

OBBI 220600Z 14003KT 090V200 CAVOK 39/20 Q0996 NOSIG

Aviation forecast (TAF) for Bahrain International Airport

2024/06/22 06:39 (retrieved 0 seconds ago)

TAF OBBI 220500Z 2206/2312 09008KT CAVOK